sensor_id;sensor_type;location;lat;lon;timestamp;temperature;humidity
72646;DHT22;60687;53.876;10.674;2022-09-30T00:04:31;10.40;91.10
72646;DHT22;60687;53.876;10.674;2022-09-30T00:14:34;10.30;91.10
72646;DHT22;60687;53.876;10.674;2022-09-30T00:24:37;10.30;91.10
72646;DHT22;60687;53.876;10.674;2022-09-30T00:34:40;10.30;91.00
72646;DHT22;60687;53.876;10.674;2022-09-30T00:44:49;10.30;91.10
72646;DHT22;60687;53.876;10.674;2022-09-30T00:54:54;10.20;91.10
72646;DHT22;60687;53.876;10.674;2022-09-30T01:04:58;10.20;91.20
72646;DHT22;60687;53.876;10.674;2022-09-30T01:15:02;10.20;91.20
72646;DHT22;60687;53.876;10.674;2022-09-30T01:25:27;10.20;91.10
72646;DHT22;60687;53.876;10.674;2022-09-30T01:35:49;10.10;91.00
72646;DHT22;60687;53.876;10.674;2022-09-30T01:45:56;10.10;91.10
72646;DHT22;60687;53.876;10.674;2022-09-30T01:56:04;10.10;91.00
72646;DHT22;60687;53.876;10.674;2022-09-30T02:06:11;10.10;91.00
72646;DHT22;60687;53.876;10.674;2022-09-30T02:16:21;10.10;91.00
72646;DHT22;60687;53.876;10.674;2022-09-30T02:26:27;10.10;91.00
72646;DHT22;60687;53.876;10.674;2022-09-30T02:36:35;10.00;90.90
72646;DHT22;60687;53.876;10.674;2022-09-30T02:46:43;10.00;90.90
72646;DHT22;60687;53.876;10.674;2022-09-30T02:56:53;10.00;90.90
72646;DHT22;60687;53.876;10.674;2022-09-30T03:06:58;10.00;91.00
72646;DHT22;60687;53.876;10.674;2022-09-30T03:17:25;10.00;91.00
72646;DHT22;60687;53.876;10.674;2022-09-30T03:27:32;9.90;90.90
72646;DHT22;60687;53.876;10.674;2022-09-30T03:37:43;9.90;91.00
72646;DHT22;60687;53.876;10.674;2022-09-30T03:47:50;9.90;91.00
72646;DHT22;60687;53.876;10.674;2022-09-30T03:57:55;9.90;90.90
72646;DHT22;60687;53.876;10.674;2022-09-30T04:07:58;9.80;90.70
72646;DHT22;60687;53.876;10.674;2022-09-30T04:18:01;9.70;90.70
72646;DHT22;60687;53.876;10.674;2022-09-30T04:28:03;9.60;90.80
72646;DHT22;60687;53.876;10.674;2022-09-30T04:38:07;9.60;90.80
72646;DHT22;60687;53.876;10.674;2022-09-30T04:48:09;9.60;90.80
72646;DHT22;60687;53.876;10.674;2022-09-30T04:58:12;9.60;91.40
72646;DHT22;60687;53.876;10.674;2022-09-30T05:08:14;9.50;90.90
72646;DHT22;60687;53.876;10.674;2022-09-30T05:18:22;9.50;91.00
72646;DHT22;60687;53.876;10.674;2022-09-30T05:28:37;9.50;91.00
72646;DHT22;60687;53.876;10.674;2022-09-30T05:38:49;9.50;91.00
72646;DHT22;60687;53.876;10.674;2022-09-30T05:48:54;9.50;91.00
72646;DHT22;60687;53.876;10.674;2022-09-30T05:58:58;9.60;91.10
72646;DHT22;60687;53.876;10.674;2022-09-30T06:09:00;9.60;91.10
72646;DHT22;60687;53.876;10.674;2022-09-30T06:19:04;9.60;91.10
72646;DHT22;60687;53.876;10.674;2022-09-30T06:29:07;9.70;91.20
72646;DHT22;60687;53.876;10.674;2022-09-30T06:39:15;9.70;91.30
72646;DHT22;60687;53.876;10.674;2022-09-30T06:49:18;9.80;91.30
72646;DHT22;60687;53.876;10.674;2022-09-30T06:59:31;9.90;91.30
72646;DHT22;60687;53.876;10.674;2022-09-30T07:09:35;10.10;91.10
72646;DHT22;60687;53.876;10.674;2022-09-30T07:19:41;10.20;90.80
72646;DHT22;60687;53.876;10.674;2022-09-30T07:30:02;10.50;90.80
72646;DHT22;60687;53.876;10.674;2022-09-30T07:40:16;10.70;90.20
72646;DHT22;60687;53.876;10.674;2022-09-30T07:50:19;11.00;90.10
72646;DHT22;60687;53.876;10.674;2022-09-30T08:00:26;11.40;89.10
72646;DHT22;60687;53.876;10.674;2022-09-30T08:11:03;11.70;89.20
72646;DHT22;60687;53.876;10.674;2022-09-30T08:21:28;12.00;87.30
72646;DHT22;60687;53.876;10.674;2022-09-30T08:31:37;12.30;86.00
72646;DHT22;60687;53.876;10.674;2022-09-30T08:52:40;13.00;84.00
72646;DHT22;60687;53.876;10.674;2022-09-30T09:03:08;13.40;83.20
72646;DHT22;60687;53.876;10.674;2022-09-30T09:24:13;13.50;81.20
72646;DHT22;60687;53.876;10.674;2022-09-30T09:34:25;13.70;79.70
72646;DHT22;60687;53.876;10.674;2022-09-30T09:44:34;13.90;81.50
72646;DHT22;60687;53.876;10.674;2022-09-30T10:05:26;14.20;80.70
72646;DHT22;60687;53.876;10.674;2022-09-30T10:15:50;14.10;78.70
72646;DHT22;60687;53.876;10.674;2022-09-30T10:26:01;14.00;79.10
72646;DHT22;60687;53.876;10.674;2022-09-30T10:46:41;14.30;79.00
72646;DHT22;60687;53.876;10.674;2022-09-30T10:57:02;14.40;77.00
72646;DHT22;60687;53.876;10.674;2022-09-30T11:07:20;14.60;77.30
72646;DHT22;60687;53.876;10.674;2022-09-30T11:17:30;14.70;77.10
72646;DHT22;60687;53.876;10.674;2022-09-30T11:39:05;14.90;75.10
72646;DHT22;60687;53.876;10.674;2022-09-30T12:00:30;15.10;74.10
72646;DHT22;60687;53.876;10.674;2022-09-30T12:11:06;15.20;74.60
72646;DHT22;60687;53.876;10.674;2022-09-30T12:21:24;15.30;74.20
72646;DHT22;60687;53.876;10.674;2022-09-30T12:53:41;15.40;70.10
72646;DHT22;60687;53.876;10.674;2022-09-30T13:04:13;15.40;70.10
72646;DHT22;60687;53.876;10.674;2022-09-30T13:25:24;15.40;70.20
72646;DHT22;60687;53.876;10.674;2022-09-30T13:35:51;15.40;70.00
72646;DHT22;60687;53.876;10.674;2022-09-30T13:46:28;15.40;70.10
72646;DHT22;60687;53.876;10.674;2022-09-30T13:56:43;15.40;70.30
72646;DHT22;60687;53.876;10.674;2022-09-30T14:07:09;15.50;70.90
72646;DHT22;60687;53.876;10.674;2022-09-30T14:17:27;15.60;68.30
72646;DHT22;60687;53.876;10.674;2022-09-30T14:27:56;15.60;67.60
72646;DHT22;60687;53.876;10.674;2022-09-30T14:40:06;15.50;66.30
72646;DHT22;60687;53.876;10.674;2022-09-30T16:48:53;14.20;70.00
